Time;durP1;ratioP1;P1;durP2;ratioP2;P2;SDS_P1;SDS_P2;PMS_P1;PMS_P2;Temp;Humidity;BMP_temperature;BMP_pressure;BME280_temperature;BME280_humidity;BME280_pressure;Samples;Min_cycle;Max_cycle;Signal;HPM_P1;HPM_P2
2022/04/09 00:02:21;;;;;;;;;;;11.90;99.90;;;;;;5094552;28;20357;-50
2022/04/09 00:04:47;;;;;;;;;;;11.80;99.90;;;;;;5094471;28;19909;-46
2022/04/09 00:07:13;;;;;;;;;;;12.00;99.90;;;;;;5094645;28;20342;-52
2022/04/09 00:09:39;;;;;;;;;;;12.20;99.90;;;;;;5094332;28;20355;-47
2022/04/09 00:12:04;;;;;;;;;;;12.10;99.90;;;;;;5094281;28;19923;-49
2022/04/09 00:14:30;;;;;;;;;;;12.20;99.90;;;;;;5094176;28;20003;-46
2022/04/09 00:16:55;;;;;;;;;;;12.30;99.90;;;;;;5094427;28;19947;-48
2022/04/09 00:19:21;;;;;;;;;;;12.40;99.90;;;;;;5094497;28;19914;-50
2022/04/09 00:21:46;;;;;;;;;;;12.50;99.90;;;;;;5094390;28;19908;-50
2022/04/09 00:24:12;;;;;;;;;;;12.60;99.90;;;;;;5094002;28;19915;-51
2022/04/09 00:26:38;;;;;;;;;;;12.70;99.90;;;;;;5094453;28;19909;-48
2022/04/09 00:29:04;;;;;;;;;;;12.60;99.90;;;;;;5093821;28;19920;-48
2022/04/09 00:31:29;;;;;;;;;;;12.70;99.90;;;;;;5093816;28;19919;-47
2022/04/09 00:33:55;;;;;;;;;;;12.60;99.90;;;;;;5092958;28;20342;-47
2022/04/09 00:36:20;;;;;;;;;;;12.40;99.90;;;;;;5093968;28;19908;-49
2022/04/09 00:38:46;;;;;;;;;;;12.30;99.90;;;;;;5093816;28;19914;-48
2022/04/09 00:41:11;;;;;;;;;;;12.10;99.90;;;;;;5093991;28;19995;-47
2022/04/09 00:43:40;;;;;;;;;;;12.00;99.90;;;;;;5094010;28;20262;-48
2022/04/09 00:46:07;;;;;;;;;;;11.90;99.90;;;;;;5094237;28;19908;-46
2022/04/09 00:48:33;;;;;;;;;;;11.80;99.90;;;;;;5093852;28;19912;-46
2022/04/09 00:50:59;;;;;;;;;;;11.60;99.90;;;;;;5093938;28;19938;-48
2022/04/09 00:53:26;;;;;;;;;;;11.40;99.90;;;;;;5093933;28;19912;-49
2022/04/09 00:58:36;;;;;;;;;;;11.00;99.90;;;;;;5094238;28;20270;-48
2022/04/09 01:01:03;;;;;;;;;;;10.80;99.90;;;;;;5094124;28;19908;-49
2022/04/09 01:03:29;;;;;;;;;;;10.60;99.90;;;;;;5093628;28;19908;-48
2022/04/09 01:05:55;;;;;;;;;;;10.40;99.90;;;;;;5093995;28;19912;-51
2022/04/09 01:08:20;;;;;;;;;;;10.30;99.90;;;;;;5093932;28;19912;-49
2022/04/09 01:10:47;;;;;;;;;;;10.20;99.90;;;;;;5093641;28;19916;-47
2022/04/09 01:13:13;;;;;;;;;;;10.20;99.90;;;;;;5094198;28;19951;-48
2022/04/09 01:15:39;;;;;;;;;;;10.20;99.90;;;;;;5093936;28;19908;-51
2022/04/09 01:18:04;;;;;;;;;;;10.20;99.90;;;;;;5093511;28;20057;-47
2022/04/09 01:20:30;;;;;;;;;;;8.90;99.90;;;;;;5094209;28;19953;-47
2022/04/09 01:22:55;;;;;;;;;;;8.10;99.90;;;;;;5092583;28;19923;-50
2022/04/09 01:25:21;;;;;;;;;;;7.80;99.90;;;;;;5093759;28;19915;-49
2022/04/09 01:27:47;;;;;;;;;;;7.60;99.90;;;;;;5093617;28;20337;-53
2022/04/09 01:30:13;;;;;;;;;;;7.50;99.90;;;;;;5093668;28;19915;-49
2022/04/09 01:32:39;;;;;;;;;;;7.40;99.90;;;;;;5096571;28;19966;-49
2022/04/09 01:35:04;;;;;;;;;;;7.30;99.90;;;;;;5096526;28;19947;-47
2022/04/09 01:37:31;;;;;;;;;;;7.30;99.90;;;;;;5097771;28;19914;-49
2022/04/09 01:39:57;;;;;;;;;;;7.10;99.90;;;;;;5097495;28;19912;-51
2022/04/09 01:42:25;;;;;;;;;;;7.00;99.90;;;;;;5097691;28;20289;-51
2022/04/09 01:44:50;;;;;;;;;;;7.00;99.90;;;;;;5096318;28;19998;-49
2022/04/09 01:47:16;;;;;;;;;;;7.00;99.90;;;;;;5097218;28;19948;-48
2022/04/09 01:49:41;;;;;;;;;;;6.90;99.90;;;;;;5097415;28;19926;-47
2022/04/09 01:52:07;;;;;;;;;;;6.80;99.90;;;;;;5097436;28;20397;-47
2022/04/09 01:54:33;;;;;;;;;;;6.80;99.90;;;;;;5097408;28;19908;-48
2022/04/09 01:56:58;;;;;;;;;;;6.80;99.90;;;;;;5097050;28;19908;-48
2022/04/09 01:59:24;;;;;;;;;;;6.70;99.90;;;;;;5096997;28;19986;-51
2022/04/09 02:01:49;;;;;;;;;;;6.50;99.90;;;;;;5097131;28;20341;-49
2022/04/09 02:04:15;;;;;;;;;;;6.10;99.90;;;;;;5096818;28;19908;-48
2022/04/09 02:06:42;;;;;;;;;;;5.50;99.90;;;;;;5097122;28;19912;-47
2022/04/09 02:09:13;;;;;;;;;;;5.10;99.90;;;;;;5096952;28;19920;-49
2022/04/09 02:11:39;;;;;;;;;;;4.80;99.90;;;;;;5096616;28;20417;-48
2022/04/09 02:14:05;;;;;;;;;;;4.50;99.90;;;;;;5096927;28;19908;-51
2022/04/09 02:16:31;;;;;;;;;;;4.40;99.90;;;;;;5096513;28;19908;-47
2022/04/09 02:18:57;;;;;;;;;;;3.80;99.90;;;;;;5096813;28;19961;-47
2022/04/09 02:21:23;;;;;;;;;;;3.30;99.90;;;;;;5096737;28;19908;-49
2022/04/09 02:23:48;;;;;;;;;;;3.00;99.90;;;;;;5096634;28;20019;-48
2022/04/09 02:26:14;;;;;;;;;;;2.80;99.90;;;;;;5096790;28;19935;-47
2022/04/09 02:28:41;;;;;;;;;;;2.70;99.90;;;;;;5096364;28;19919;-45
2022/04/09 02:31:06;;;;;;;;;;;2.70;99.90;;;;;;5096650;28;19912;-48
2022/04/09 02:33:32;;;;;;;;;;;2.50;99.90;;;;;;5095370;28;19920;-50
2022/04/09 02:35:57;;;;;;;;;;;2.40;99.90;;;;;;5096519;28;20255;-48
2022/04/09 02:38:24;;;;;;;;;;;2.40;99.90;;;;;;5096392;28;20460;-46
2022/04/09 02:40:49;;;;;;;;;;;2.30;99.90;;;;;;5095097;28;20359;-48
2022/04/09 02:43:15;;;;;;;;;;;2.30;99.90;;;;;;5095210;28;19908;-50
2022/04/09 02:45:41;;;;;;;;;;;2.30;99.90;;;;;;5096187;28;19962;-50
2022/04/09 02:48:06;;;;;;;;;;;2.20;99.90;;;;;;5095938;28;20240;-51
2022/04/09 02:50:32;;;;;;;;;;;2.20;99.90;;;;;;5096235;28;19912;-46
2022/04/09 02:52:58;;;;;;;;;;;2.30;99.90;;;;;;5095870;28;19908;-46
2022/04/09 02:55:23;;;;;;;;;;;2.30;99.90;;;;;;5096147;28;19909;-48
2022/04/09 02:57:50;;;;;;;;;;;2.30;99.90;;;;;;5095959;28;19909;-50
2022/04/09 03:00:15;;;;;;;;;;;2.40;99.90;;;;;;5096055;28;19915;-47
2022/04/09 03:02:41;;;;;;;;;;;2.60;99.90;;;;;;5095690;28;19908;-51
2022/04/09 03:05:07;;;;;;;;;;;2.60;99.90;;;;;;5096032;28;19908;-45
2022/04/09 03:07:33;;;;;;;;;;;2.60;99.90;;;;;;5095841;28;19931;-48
2022/04/09 03:09:59;;;;;;;;;;;2.70;99.90;;;;;;5094507;28;19930;-47
2022/04/09 03:12:24;;;;;;;;;;;2.70;99.90;;;;;;5095958;28;20082;-49
2022/04/09 03:14:50;;;;;;;;;;;2.80;99.90;;;;;;5095662;28;19915;-48
2022/04/09 03:17:15;;;;;;;;;;;2.50;99.90;;;;;;5095673;28;19931;-47
2022/04/09 03:19:40;;;;;;;;;;;2.50;99.90;;;;;;5095730;28;19908;-48
2022/04/09 03:22:06;;;;;;;;;;;2.70;99.90;;;;;;5095687;28;19943;-49
2022/04/09 03:24:32;;;;;;;;;;;2.70;99.90;;;;;;5094346;28;20261;-47
2022/04/09 03:26:57;;;;;;;;;;;2.60;99.90;;;;;;5095522;28;19908;-50
2022/04/09 03:29:23;;;;;;;;;;;2.50;99.90;;;;;;5095262;28;19965;-46
2022/04/09 03:31:48;;;;;;;;;;;2.40;99.90;;;;;;5095119;28;19927;-47
2022/04/09 03:34:14;;;;;;;;;;;2.50;99.90;;;;;;5095018;28;19919;-47
2022/04/09 03:36:39;;;;;;;;;;;2.50;99.90;;;;;;5094425;28;19915;-49
2022/04/09 03:39:06;;;;;;;;;;;2.60;99.90;;;;;;5095061;28;19908;-47
2022/04/09 03:41:32;;;;;;;;;;;2.60;99.90;;;;;;5095144;28;19908;-49
2022/04/09 03:43:57;;;;;;;;;;;2.60;99.90;;;;;;5094807;28;19908;-49
2022/04/09 03:46:23;;;;;;;;;;;2.80;99.90;;;;;;5094822;28;19908;-49
2022/04/09 03:48:48;;;;;;;;;;;2.80;99.90;;;;;;5093730;28;19923;-49
2022/04/09 03:51:14;;;;;;;;;;;3.00;99.90;;;;;;5093860;28;19919;-55
2022/04/09 03:53:39;;;;;;;;;;;2.90;99.90;;;;;;5093373;28;20247;-49
2022/04/09 03:56:05;;;;;;;;;;;3.00;99.90;;;;;;5094274;28;19990;-48
2022/04/09 03:58:30;;;;;;;;;;;3.00;99.90;;;;;;5094853;28;20349;-51
2022/04/09 04:00:56;;;;;;;;;;;3.00;99.90;;;;;;5094677;28;19908;-52
2022/04/09 04:03:22;;;;;;;;;;;3.00;99.90;;;;;;5094718;28;19908;-46
2022/04/09 04:05:48;;;;;;;;;;;2.90;99.90;;;;;;5094824;28;19915;-49
2022/04/09 04:08:14;;;;;;;;;;;2.90;99.90;;;;;;5094583;28;19935;-52
2022/04/09 04:10:40;;;;;;;;;;;2.90;99.90;;;;;;5094505;28;19908;-50
2022/04/09 04:13:06;;;;;;;;;;;2.80;99.90;;;;;;5094165;28;19912;-48
2022/04/09 04:15:32;;;;;;;;;;;2.90;99.90;;;;;;5094318;28;19912;-48
2022/04/09 04:17:57;;;;;;;;;;;2.90;99.90;;;;;;5094055;28;19999;-49
2022/04/09 04:20:26;;;;;;;;;;;3.00;99.90;;;;;;5094334;28;19944;-48
2022/04/09 04:22:52;;;;;;;;;;;2.90;99.90;;;;;;5094424;28;19912;-48
2022/04/09 04:25:18;;;;;;;;;;;2.90;99.90;;;;;;5094105;28;19908;-50
2022/04/09 04:27:46;;;;;;;;;;;3.00;99.90;;;;;;5092884;28;19916;-46
2022/04/09 04:30:12;;;;;;;;;;;3.10;99.90;;;;;;5094002;28;19961;-47
2022/04/09 04:32:37;;;;;;;;;;;3.10;99.90;;;;;;5093898;28;19921;-46
2022/04/09 04:35:03;;;;;;;;;;;3.10;99.90;;;;;;5094038;28;19914;-47
2022/04/09 04:37:38;;;;;;;;;;;3.10;99.90;;;;;;5092486;28;20362;-50
2022/04/09 04:40:05;;;;;;;;;;;3.00;99.90;;;;;;5093766;28;19912;-49
2022/04/09 04:42:30;;;;;;;;;;;3.20;99.90;;;;;;5093850;28;19907;-46
2022/04/09 04:44:56;;;;;;;;;;;3.20;99.90;;;;;;5093806;28;20381;-48
2022/04/09 04:47:21;;;;;;;;;;;3.30;99.90;;;;;;5092550;28;19914;-49
2022/04/09 04:49:47;;;;;;;;;;;3.40;99.90;;;;;;5093641;28;19967;-51
2022/04/09 04:52:12;;;;;;;;;;;3.40;99.90;;;;;;5094413;28;19915;-45
2022/04/09 04:54:38;;;;;;;;;;;3.40;99.90;;;;;;5093773;28;19998;-47
2022/04/09 04:57:03;;;;;;;;;;;3.40;99.90;;;;;;5094109;28;19915;-45
2022/04/09 04:59:29;;;;;;;;;;;3.30;99.90;;;;;;5093790;28;19934;-46
2022/04/09 05:01:54;;;;;;;;;;;3.30;99.90;;;;;;5091506;28;20278;-50
2022/04/09 05:04:20;;;;;;;;;;;3.30;99.90;;;;;;5090497;28;19913;-46
2022/04/09 05:06:45;;;;;;;;;;;3.40;99.90;;;;;;5114171;27;19909;-48
2022/04/09 05:09:13;;;;;;;;;;;3.20;99.90;;;;;;5073549;28;20426;-50
2022/04/09 05:11:39;;;;;;;;;;;3.20;99.90;;;;;;5092283;28;19908;-50
2022/04/09 05:14:04;;;;;;;;;;;3.30;99.90;;;;;;5093787;28;20341;-51
2022/04/09 05:16:30;;;;;;;;;;;3.40;99.90;;;;;;5089233;28;19995;-48
2022/04/09 05:18:56;;;;;;;;;;;3.60;99.90;;;;;;5093612;28;19977;-48
2022/04/09 05:21:22;;;;;;;;;;;3.50;99.90;;;;;;5091826;28;19915;-52
2022/04/09 05:23:47;;;;;;;;;;;3.50;99.90;;;;;;5092154;28;20320;-47
2022/04/09 05:26:13;;;;;;;;;;;3.60;99.90;;;;;;5091978;28;20286;-47
2022/04/09 05:28:39;;;;;;;;;;;3.60;99.90;;;;;;5093933;28;19926;-47
2022/04/09 05:31:04;;;;;;;;;;;3.70;99.90;;;;;;5092479;28;19916;-47
2022/04/09 05:33:30;;;;;;;;;;;3.70;99.90;;;;;;5092904;28;19931;-49
2022/04/09 05:35:56;;;;;;;;;;;3.70;99.90;;;;;;5095510;28;19920;-49
2022/04/09 05:38:22;;;;;;;;;;;3.60;99.90;;;;;;5097260;28;19916;-48
2022/04/09 05:40:48;;;;;;;;;;;3.60;99.90;;;;;;5096231;28;19917;-48
2022/04/09 05:43:13;;;;;;;;;;;3.60;99.90;;;;;;5092139;28;19997;-50
2022/04/09 05:45:39;;;;;;;;;;;3.60;99.90;;;;;;5091861;28;19974;-49
2022/04/09 05:48:05;;;;;;;;;;;3.50;99.90;;;;;;5101893;28;20378;-49
2022/04/09 05:50:30;;;;;;;;;;;3.40;99.90;;;;;;5114008;28;20411;-47
2022/04/09 05:52:56;;;;;;;;;;;3.40;99.90;;;;;;5113727;28;20280;-51
2022/04/09 05:55:21;;;;;;;;;;;3.40;99.90;;;;;;5113715;28;19912;-48
2022/04/09 05:57:47;;;;;;;;;;;3.40;99.90;;;;;;5113460;28;19995;-48
2022/04/09 06:00:13;;;;;;;;;;;3.40;99.90;;;;;;5113642;28;19914;-51
2022/04/09 06:02:39;;;;;;;;;;;3.30;99.90;;;;;;5113578;28;19908;-48
2022/04/09 06:05:08;;;;;;;;;;;3.20;99.90;;;;;;5113594;28;19947;-47
2022/04/09 06:07:34;;;;;;;;;;;3.30;99.90;;;;;;5112265;28;20010;-51
2022/04/09 06:10:00;;;;;;;;;;;3.40;99.90;;;;;;5113437;28;19931;-49
2022/04/09 06:12:26;;;;;;;;;;;3.50;99.90;;;;;;5113445;28;19988;-47
2022/04/09 06:14:51;;;;;;;;;;;3.30;99.90;;;;;;5113558;28;20413;-47
2022/04/09 06:17:17;;;;;;;;;;;3.40;99.90;;;;;;5093239;28;19959;-50
2022/04/09 06:19:43;;;;;;;;;;;3.60;99.90;;;;;;5095784;28;19937;-48
2022/04/09 06:22:09;;;;;;;;;;;3.70;99.90;;;;;;5094031;28;19908;-48
2022/04/09 06:24:34;;;;;;;;;;;3.90;99.90;;;;;;5095214;28;19947;-49
2022/04/09 06:27:00;;;;;;;;;;;3.80;99.90;;;;;;5095195;28;20322;-47
2022/04/09 06:29:25;;;;;;;;;;;3.70;99.90;;;;;;5094820;28;20014;-49
2022/04/09 06:31:51;;;;;;;;;;;3.50;99.90;;;;;;5093414;28;20397;-49
2022/04/09 06:34:17;;;;;;;;;;;3.60;99.90;;;;;;5093853;28;19987;-47
2022/04/09 06:36:42;;;;;;;;;;;3.60;99.90;;;;;;5092603;28;19908;-49
2022/04/09 06:39:08;;;;;;;;;;;3.60;99.90;;;;;;5102289;28;19918;-48
2022/04/09 06:41:35;;;;;;;;;;;3.60;99.90;;;;;;5115463;28;19908;-48
2022/04/09 06:44:01;;;;;;;;;;;3.70;99.90;;;;;;5116473;28;20001;-47
2022/04/09 06:46:26;;;;;;;;;;;3.70;99.90;;;;;;5115387;28;20311;-50
2022/04/09 06:48:52;;;;;;;;;;;3.80;99.90;;;;;;5091574;28;20053;-46
2022/04/09 06:51:18;;;;;;;;;;;4.00;99.90;;;;;;5085536;28;19948;-47
2022/04/09 06:53:43;;;;;;;;;;;3.90;99.90;;;;;;5087505;28;20069;-48
2022/04/09 06:56:09;;;;;;;;;;;3.90;99.90;;;;;;5082640;28;20382;-47
2022/04/09 06:58:35;;;;;;;;;;;4.10;99.90;;;;;;5095622;28;19912;-47
2022/04/09 07:01:00;;;;;;;;;;;4.10;99.90;;;;;;5095427;28;19908;-47
2022/04/09 07:03:26;;;;;;;;;;;4.00;99.90;;;;;;5095820;28;19908;-49
2022/04/09 07:05:52;;;;;;;;;;;3.90;99.90;;;;;;5095467;28;20267;-48
2022/04/09 07:08:17;;;;;;;;;;;4.00;99.90;;;;;;5095424;28;20343;-47
2022/04/09 07:10:43;;;;;;;;;;;4.00;99.90;;;;;;5095461;28;19908;-47
2022/04/09 07:13:08;;;;;;;;;;;3.90;99.90;;;;;;5101492;28;19908;-47
2022/04/09 07:15:34;;;;;;;;;;;4.00;99.90;;;;;;5116029;28;19912;-52
2022/04/09 07:17:59;;;;;;;;;;;4.10;99.90;;;;;;5114265;28;20011;-49
2022/04/09 07:20:25;;;;;;;;;;;4.00;99.90;;;;;;5115874;28;20308;-48
2022/04/09 07:22:51;;;;;;;;;;;3.80;99.90;;;;;;5115340;28;19908;-49
2022/04/09 07:25:16;;;;;;;;;;;3.80;99.90;;;;;;5115198;28;19908;-47
2022/04/09 07:27:43;;;;;;;;;;;3.90;99.90;;;;;;5115134;28;19986;-48
2022/04/09 07:30:10;;;;;;;;;;;4.00;99.90;;;;;;5114798;28;19923;-48
2022/04/09 07:32:36;;;;;;;;;;;4.00;99.90;;;;;;5115656;28;20381;-48
2022/04/09 07:35:02;;;;;;;;;;;3.90;99.90;;;;;;5108867;28;19912;-48
2022/04/09 07:37:27;;;;;;;;;;;4.20;99.90;;;;;;5109851;28;19919;-52
2022/04/09 07:39:53;;;;;;;;;;;4.10;99.90;;;;;;5105938;28;20266;-48
2022/04/09 07:42:22;;;;;;;;;;;4.10;99.90;;;;;;5112416;28;19928;-46
2022/04/09 07:44:48;;;;;;;;;;;4.20;99.90;;;;;;5094277;28;19908;-49
2022/04/09 07:47:14;;;;;;;;;;;4.20;99.90;;;;;;5094082;28;20009;-55
2022/04/09 07:49:40;;;;;;;;;;;4.00;99.90;;;;;;5100963;28;19946;-48
2022/04/09 07:52:06;;;;;;;;;;;4.30;99.90;;;;;;5114396;28;19908;-48
2022/04/09 07:54:32;;;;;;;;;;;4.30;99.90;;;;;;5113734;28;20278;-49
2022/04/09 07:56:57;;;;;;;;;;;4.50;99.90;;;;;;5114911;28;19908;-47
2022/04/09 07:59:23;;;;;;;;;;;4.80;99.90;;;;;;5110148;28;19912;-47
2022/04/09 08:01:48;;;;;;;;;;;4.80;99.90;;;;;;5085642;28;19912;-50
2022/04/09 08:04:14;;;;;;;;;;;5.00;99.90;;;;;;5075936;28;19924;-49
2022/04/09 08:06:39;;;;;;;;;;;4.50;99.90;;;;;;5077596;28;19920;-48
2022/04/09 08:09:05;;;;;;;;;;;4.90;99.90;;;;;;5079410;28;19925;-47
2022/04/09 08:11:30;;;;;;;;;;;5.20;99.90;;;;;;5082869;28;19957;-49
2022/04/09 08:13:56;;;;;;;;;;;5.20;99.90;;;;;;5089485;28;20259;-47
2022/04/09 08:16:22;;;;;;;;;;;5.20;99.90;;;;;;5092741;28;19912;-45
2022/04/09 08:18:47;;;;;;;;;;;5.20;99.90;;;;;;5093932;28;19934;-48
2022/04/09 08:21:13;;;;;;;;;;;5.50;99.90;;;;;;5092562;28;19999;-46
2022/04/09 08:23:39;;;;;;;;;;;5.50;99.90;;;;;;5093904;28;19908;-45
2022/04/09 08:26:05;;;;;;;;;;;5.30;99.90;;;;;;5093892;28;19912;-46
2022/04/09 08:28:31;;;;;;;;;;;5.10;99.90;;;;;;5093641;28;19916;-49
2022/04/09 08:30:57;;;;;;;;;;;5.00;99.90;;;;;;5094103;28;19908;-47
2022/04/09 08:33:22;;;;;;;;;;;4.90;99.90;;;;;;5094093;28;19920;-47
2022/04/09 08:35:48;;;;;;;;;;;5.00;99.90;;;;;;5093861;28;20421;-49
2022/04/09 08:38:13;;;;;;;;;;;5.00;99.90;;;;;;5126443;27;19931;-46
2022/04/09 08:40:40;;;;;;;;;;;5.00;99.90;;;;;;5093100;28;19914;-47
2022/04/09 08:43:05;;;;;;;;;;;4.90;99.90;;;;;;5093538;28;19908;-46
2022/04/09 08:45:35;;;;;;;;;;;4.90;99.90;;;;;;5093641;28;19916;-44
2022/04/09 08:48:02;;;;;;;;;;;5.50;99.90;;;;;;5093641;28;19994;-49
2022/04/09 08:50:28;;;;;;;;;;;5.90;99.90;;;;;;5093402;28;19908;-46
2022/04/09 08:52:53;;;;;;;;;;;5.90;99.90;;;;;;5092332;28;20242;-44
2022/04/09 08:55:19;;;;;;;;;;;6.50;99.90;;;;;;5093761;28;19937;-48
2022/04/09 08:57:45;;;;;;;;;;;6.90;99.90;;;;;;5092938;28;20259;-48
2022/04/09 09:00:13;;;;;;;;;;;6.40;99.90;;;;;;5093235;28;19974;-51
2022/04/09 09:02:55;;;;;;;;;;;6.50;99.90;;;;;;5091997;28;19973;-47
2022/04/09 09:05:31;;;;;;;;;;;6.10;99.90;;;;;;5093411;28;19909;-48
2022/04/09 09:07:57;;;;;;;;;;;6.20;99.90;;;;;;5093068;28;19943;-46
2022/04/09 09:10:22;;;;;;;;;;;6.20;99.90;;;;;;5093528;28;19971;-44
2022/04/09 09:13:06;;;;;;;;;;;5.90;99.90;;;;;;5093300;28;19915;-45
2022/04/09 09:15:47;;;;;;;;;;;6.00;99.90;;;;;;5093542;28;19908;-50
2022/04/09 09:18:25;;;;;;;;;;;6.20;99.90;;;;;;5093050;28;19912;-45
2022/04/09 09:20:55;;;;;;;;;;;6.20;99.90;;;;;;5093418;28;19915;-52
2022/04/09 09:23:24;;;;;;;;;;;6.30;99.90;;;;;;5093206;28;19908;-48
2022/04/09 09:25:51;;;;;;;;;;;6.60;99.90;;;;;;5093104;28;19908;-46
2022/04/09 09:28:23;;;;;;;;;;;6.80;99.90;;;;;;5092822;28;19981;-51
2022/04/09 09:30:49;;;;;;;;;;;6.70;99.90;;;;;;5093117;28;19915;-44
2022/04/09 09:33:14;;;;;;;;;;;6.20;99.90;;;;;;5091223;28;19923;-47
2022/04/09 09:36:06;;;;;;;;;;;6.10;99.90;;;;;;5093131;28;19912;-45
2022/04/09 09:38:33;;;;;;;;;;;6.40;99.90;;;;;;5091717;28;19908;-48
2022/04/09 09:41:01;;;;;;;;;;;6.40;99.90;;;;;;5091724;28;19951;-45
2022/04/09 09:43:27;;;;;;;;;;;6.60;99.90;;;;;;5091747;28;19915;-48
2022/04/09 09:45:53;;;;;;;;;;;5.90;99.90;;;;;;5092541;28;19920;-47
2022/04/09 09:48:19;;;;;;;;;;;5.80;99.90;;;;;;5092024;28;20394;-49
2022/04/09 09:50:45;;;;;;;;;;;5.80;99.90;;;;;;5091408;28;19919;-49
2022/04/09 09:53:10;;;;;;;;;;;5.80;99.90;;;;;;5094810;28;19908;-48
2022/04/09 09:55:45;;;;;;;;;;;5.80;99.90;;;;;;5096545;28;19908;-47
2022/04/09 09:58:16;;;;;;;;;;;5.70;99.90;;;;;;5096646;28;19984;-47
2022/04/09 10:00:42;;;;;;;;;;;5.80;99.90;;;;;;5096931;28;19923;-46
2022/04/09 10:03:09;;;;;;;;;;;5.70;99.90;;;;;;5096593;28;19908;-49
2022/04/09 10:05:37;;;;;;;;;;;5.70;99.90;;;;;;5094063;28;19924;-46
2022/04/09 10:08:03;;;;;;;;;;;5.70;99.90;;;;;;5095079;28;19919;-46
2022/04/09 10:10:29;;;;;;;;;;;5.50;99.90;;;;;;5100428;28;19919;-45
2022/04/09 10:12:57;;;;;;;;;;;5.30;99.90;;;;;;5089239;28;20002;-45
2022/04/09 10:15:25;;;;;;;;;;;5.50;99.90;;;;;;5093758;28;19998;-46
2022/04/09 10:17:53;;;;;;;;;;;5.90;99.90;;;;;;5080969;28;19955;-48
2022/04/09 10:20:19;;;;;;;;;;;6.30;99.90;;;;;;5093081;28;19922;-46
2022/04/09 10:22:48;;;;;;;;;;;6.70;99.90;;;;;;5078847;28;19916;-45
2022/04/09 10:25:14;;;;;;;;;;;6.50;99.90;;;;;;5074396;28;20309;-46
2022/04/09 10:27:42;;;;;;;;;;;6.10;99.90;;;;;;5075600;28;19957;-45
2022/04/09 10:30:10;;;;;;;;;;;6.00;99.90;;;;;;5075396;28;19917;-46
2022/04/09 10:32:39;;;;;;;;;;;6.00;99.90;;;;;;5090861;28;19928;-48
2022/04/09 10:35:21;;;;;;;;;;;6.30;99.90;;;;;;5075690;28;20005;-51
2022/04/09 10:38:05;;;;;;;;;;;6.10;99.90;;;;;;5075121;28;20062;-48
2022/04/09 10:40:31;;;;;;;;;;;6.40;99.90;;;;;;5074950;28;19915;-46
2022/04/09 10:42:56;;;;;;;;;;;6.50;99.90;;;;;;5074464;28;19909;-48
2022/04/09 10:45:22;;;;;;;;;;;6.70;99.90;;;;;;5075042;28;19916;-49
2022/04/09 10:48:10;;;;;;;;;;;6.70;99.90;;;;;;5075341;28;19954;-46
2022/04/09 10:50:51;;;;;;;;;;;6.60;99.90;;;;;;5084805;28;20064;-47
2022/04/09 10:53:16;;;;;;;;;;;6.60;99.90;;;;;;5097649;28;19916;-50
2022/04/09 10:55:42;;;;;;;;;;;6.60;99.90;;;;;;5094519;28;20334;-47
2022/04/09 10:58:10;;;;;;;;;;;6.50;99.90;;;;;;5089148;28;19912;-49
2022/04/09 11:00:37;;;;;;;;;;;6.70;99.90;;;;;;5081684;28;19961;-48
2022/04/09 11:03:31;;;;;;;;;;;6.50;99.90;;;;;;5077279;28;19920;-47
2022/04/09 11:06:20;;;;;;;;;;;6.60;99.90;;;;;;5074770;28;19954;-48
2022/04/09 11:08:56;;;;;;;;;;;6.70;99.90;;;;;;5086362;28;20014;-48
2022/04/09 11:11:25;;;;;;;;;;;7.30;99.90;;;;;;5095023;28;19908;-46
2022/04/09 11:13:52;;;;;;;;;;;7.80;99.90;;;;;;5088911;28;20479;-51
2022/04/09 11:16:18;;;;;;;;;;;8.10;99.90;;;;;;5077598;28;19912;-46
2022/04/09 11:18:46;;;;;;;;;;;8.10;99.90;;;;;;5089275;28;19912;-50
2022/04/09 11:21:12;;;;;;;;;;;7.30;99.90;;;;;;5094000;28;19962;-51
2022/04/09 11:23:38;;;;;;;;;;;7.40;99.90;;;;;;5093136;28;19912;-51
2022/04/09 11:26:03;;;;;;;;;;;7.30;99.90;;;;;;5087439;28;19912;-46
2022/04/09 11:28:38;;;;;;;;;;;7.50;99.90;;;;;;5105411;28;20007;-46
2022/04/09 11:31:06;;;;;;;;;;;7.60;99.90;;;;;;5113973;28;19908;-47
2022/04/09 11:33:32;;;;;;;;;;;8.20;99.90;;;;;;5096541;28;19958;-47
2022/04/09 11:35:58;;;;;;;;;;;9.10;99.90;;;;;;5094972;28;19908;-48
2022/04/09 11:38:24;;;;;;;;;;;8.50;99.20;;;;;;5081750;28;19913;-47
2022/04/09 11:40:49;;;;;;;;;;;8.40;99.90;;;;;;5088227;28;19966;-48
2022/04/09 11:43:16;;;;;;;;;;;7.60;99.90;;;;;;5080681;28;19919;-47
2022/04/09 11:45:42;;;;;;;;;;;7.60;99.90;;;;;;5085937;28;19978;-47
2022/04/09 11:48:12;;;;;;;;;;;7.50;99.90;;;;;;5073441;28;20283;-47
2022/04/09 11:50:39;;;;;;;;;;;7.80;99.90;;;;;;5079939;28;19995;-47
2022/04/09 11:53:20;;;;;;;;;;;7.50;99.90;;;;;;5094883;28;20378;-47
2022/04/09 11:55:46;;;;;;;;;;;7.50;99.90;;;;;;5090439;28;19912;-45
2022/04/09 11:58:15;;;;;;;;;;;8.20;99.30;;;;;;5090676;28;19912;-46
2022/04/09 12:00:42;;;;;;;;;;;8.20;98.50;;;;;;5089352;28;19919;-48
2022/04/09 12:03:08;;;;;;;;;;;8.30;97.60;;;;;;5081410;28;20046;-48
2022/04/09 12:05:39;;;;;;;;;;;8.70;98.20;;;;;;5100852;28;19964;-48
2022/04/09 12:08:09;;;;;;;;;;;8.90;98.20;;;;;;5114518;28;19981;-50
2022/04/09 12:10:49;;;;;;;;;;;8.60;98.10;;;;;;5099248;28;20095;-47
2022/04/09 12:13:14;;;;;;;;;;;8.00;98.30;;;;;;5098615;28;20018;-50
2022/04/09 12:15:40;;;;;;;;;;;7.20;99.00;;;;;;5088340;28;20287;-48
2022/04/09 12:18:23;;;;;;;;;;;7.20;98.60;;;;;;5092412;28;19912;-45
2022/04/09 12:20:49;;;;;;;;;;;7.70;98.20;;;;;;5072359;28;19908;-47
2022/04/09 12:23:15;;;;;;;;;;;8.40;97.90;;;;;;5083716;28;19973;-46
2022/04/09 12:25:44;;;;;;;;;;;8.60;96.10;;;;;;5092556;28;19908;-47
2022/04/09 12:28:19;;;;;;;;;;;8.30;94.20;;;;;;5092668;28;19915;-50
2022/04/09 12:30:47;;;;;;;;;;;7.60;95.30;;;;;;5094237;28;19912;-48
2022/04/09 12:33:13;;;;;;;;;;;7.80;97.90;;;;;;5093801;28;19920;-47
2022/04/09 12:35:39;;;;;;;;;;;7.90;96.40;;;;;;5093165;28;19954;-50
2022/04/09 12:38:04;;;;;;;;;;;8.40;96.50;;;;;;5094029;28;19919;-48
2022/04/09 12:40:32;;;;;;;;;;;8.50;95.40;;;;;;5093545;28;19908;-49
2022/04/09 12:42:58;;;;;;;;;;;9.20;96.10;;;;;;5093395;28;20315;-49
2022/04/09 12:45:24;;;;;;;;;;;9.20;95.70;;;;;;5093464;28;19998;-52
2022/04/09 12:47:56;;;;;;;;;;;8.80;96.10;;;;;;5091721;28;19912;-50
2022/04/09 12:50:23;;;;;;;;;;;8.30;95.70;;;;;;5083141;28;20258;-47
2022/04/09 12:52:49;;;;;;;;;;;7.40;96.50;;;;;;5087557;28;19919;-48
2022/04/09 12:55:16;;;;;;;;;;;7.80;98.00;;;;;;5107062;28;19912;-46
2022/04/09 12:57:41;;;;;;;;;;;7.80;96.10;;;;;;5101936;28;20350;-45
2022/04/09 13:00:07;;;;;;;;;;;8.20;95.70;;;;;;5093420;28;19951;-47
2022/04/09 13:02:36;;;;;;;;;;;8.30;96.00;;;;;;5093157;28;19962;-47
2022/04/09 13:05:02;;;;;;;;;;;8.50;96.00;;;;;;5093513;28;20354;-47
2022/04/09 13:07:28;;;;;;;;;;;8.60;96.20;;;;;;5097432;28;19920;-48
2022/04/09 13:09:53;;;;;;;;;;;8.40;96.80;;;;;;5094689;28;19920;-47
2022/04/09 13:12:19;;;;;;;;;;;8.40;94.60;;;;;;5092914;28;19916;-47
2022/04/09 13:14:44;;;;;;;;;;;8.50;93.80;;;;;;5090478;28;19923;-48
2022/04/09 13:17:10;;;;;;;;;;;8.80;94.10;;;;;;5085674;28;19915;-47
2022/04/09 13:19:35;;;;;;;;;;;8.00;94.80;;;;;;5091741;28;19921;-49
2022/04/09 13:22:01;;;;;;;;;;;8.20;94.80;;;;;;5092082;28;19915;-49
2022/04/09 13:24:26;;;;;;;;;;;8.40;95.90;;;;;;5093115;28;19912;-50
2022/04/09 13:26:52;;;;;;;;;;;8.90;95.50;;;;;;5090944;28;19953;-48
2022/04/09 13:29:17;;;;;;;;;;;8.80;95.40;;;;;;5076541;28;19921;-48
2022/04/09 13:31:43;;;;;;;;;;;8.80;95.40;;;;;;5077162;28;19921;-48
2022/04/09 13:34:14;;;;;;;;;;;8.60;94.30;;;;;;5076837;28;20022;-47
2022/04/09 13:36:40;;;;;;;;;;;8.80;93.90;;;;;;5075661;28;19909;-48
2022/04/09 13:39:05;;;;;;;;;;;9.10;94.00;;;;;;5109745;28;20086;-47
2022/04/09 13:41:32;;;;;;;;;;;9.10;92.90;;;;;;5076223;28;19991;-51
2022/04/09 13:43:57;;;;;;;;;;;9.00;92.40;;;;;;5076762;28;19971;-48
2022/04/09 13:46:23;;;;;;;;;;;8.80;92.50;;;;;;5109363;28;19913;-47
2022/04/09 13:48:49;;;;;;;;;;;9.60;92.40;;;;;;5076225;28;20003;-46
2022/04/09 13:51:14;;;;;;;;;;;9.50;91.90;;;;;;5076619;28;19945;-46
2022/04/09 13:53:40;;;;;;;;;;;9.80;92.10;;;;;;5076435;28;19914;-47
2022/04/09 13:56:05;;;;;;;;;;;9.70;94.00;;;;;;5076326;28;19908;-48
2022/04/09 13:58:31;;;;;;;;;;;9.30;92.90;;;;;;5075941;28;19909;-47
2022/04/09 14:00:56;;;;;;;;;;;9.10;93.80;;;;;;5076349;28;19951;-49
2022/04/09 14:03:22;;;;;;;;;;;9.10;94.20;;;;;;5084734;28;19912;-45
2022/04/09 14:05:47;;;;;;;;;;;8.90;93.20;;;;;;5094663;28;20260;-49
2022/04/09 14:08:13;;;;;;;;;;;9.20;93.60;;;;;;5094733;28;19915;-47
2022/04/09 14:10:39;;;;;;;;;;;9.20;94.30;;;;;;5100625;28;19912;-49
2022/04/09 14:13:04;;;;;;;;;;;9.30;93.80;;;;;;5099136;28;19961;-51
2022/04/09 14:15:30;;;;;;;;;;;9.10;95.30;;;;;;5095337;28;20557;-51
2022/04/09 14:17:55;;;;;;;;;;;8.30;94.20;;;;;;5094935;28;20321;-46
2022/04/09 14:20:21;;;;;;;;;;;7.80;96.80;;;;;;5094756;28;19911;-48
2022/04/09 14:22:47;;;;;;;;;;;7.60;97.30;;;;;;5094731;28;19991;-48
2022/04/09 14:25:12;;;;;;;;;;;7.80;99.60;;;;;;5095183;28;20003;-50
2022/04/09 14:27:38;;;;;;;;;;;7.90;99.70;;;;;;5094961;28;19909;-49
2022/04/09 14:30:03;;;;;;;;;;;8.10;99.90;;;;;;5094810;28;19923;-46